sensor_id;sensor_type;location;lat;lon;timestamp;temperature;humidity
20574;DHT22;10445;50.216;7.912;2022-10-22T00:02:25;14.00;99.90
20574;DHT22;10445;50.216;7.912;2022-10-22T00:05:14;14.10;99.90
20574;DHT22;10445;50.216;7.912;2022-10-22T00:08:03;14.10;99.90
20574;DHT22;10445;50.216;7.912;2022-10-22T00:10:53;14.20;99.90
20574;DHT22;10445;50.216;7.912;2022-10-22T00:13:42;14.20;99.90
20574;DHT22;10445;50.216;7.912;2022-10-22T00:16:30;14.10;99.90
20574;DHT22;10445;50.216;7.912;2022-10-22T00:19:19;14.20;99.90
20574;DHT22;10445;50.216;7.912;2022-10-22T00:22:08;14.20;99.90
20574;DHT22;10445;50.216;7.912;2022-10-22T00:24:57;14.10;99.90
20574;DHT22;10445;50.216;7.912;2022-10-22T00:27:47;14.10;99.90
20574;DHT22;10445;50.216;7.912;2022-10-22T00:30:35;14.20;99.90
20574;DHT22;10445;50.216;7.912;2022-10-22T00:33:24;14.20;99.90
20574;DHT22;10445;50.216;7.912;2022-10-22T00:36:13;14.20;99.90
20574;DHT22;10445;50.216;7.912;2022-10-22T00:39:02;14.20;99.90
20574;DHT22;10445;50.216;7.912;2022-10-22T00:41:52;14.20;99.90
20574;DHT22;10445;50.216;7.912;2022-10-22T00:45:02;14.30;99.90
20574;DHT22;10445;50.216;7.912;2022-10-22T00:47:55;14.20;99.90
20574;DHT22;10445;50.216;7.912;2022-10-22T00:50:46;14.10;99.90
20574;DHT22;10445;50.216;7.912;2022-10-22T00:53:40;14.10;99.90
20574;DHT22;10445;50.216;7.912;2022-10-22T00:56:30;14.10;99.90
20574;DHT22;10445;50.216;7.912;2022-10-22T00:59:19;14.10;99.90
20574;DHT22;10445;50.216;7.912;2022-10-22T01:02:09;14.00;99.90
20574;DHT22;10445;50.216;7.912;2022-10-22T01:04:58;14.10;99.90
20574;DHT22;10445;50.216;7.912;2022-10-22T01:07:49;14.10;99.90
20574;DHT22;10445;50.216;7.912;2022-10-22T01:10:50;14.10;99.90
20574;DHT22;10445;50.216;7.912;2022-10-22T01:13:48;14.10;99.90
20574;DHT22;10445;50.216;7.912;2022-10-22T01:16:46;14.10;99.90
20574;DHT22;10445;50.216;7.912;2022-10-22T01:19:52;14.20;99.90
20574;DHT22;10445;50.216;7.912;2022-10-22T01:22:48;14.20;99.90
20574;DHT22;10445;50.216;7.912;2022-10-22T01:25:47;14.20;99.90
20574;DHT22;10445;50.216;7.912;2022-10-22T01:28:56;14.20;99.90
20574;DHT22;10445;50.216;7.912;2022-10-22T01:31:50;14.10;99.90
20574;DHT22;10445;50.216;7.912;2022-10-22T01:34:44;14.10;99.90
20574;DHT22;10445;50.216;7.912;2022-10-22T01:37:37;14.00;99.90
20574;DHT22;10445;50.216;7.912;2022-10-22T01:40:28;14.00;99.90
20574;DHT22;10445;50.216;7.912;2022-10-22T01:43:17;14.10;99.90
20574;DHT22;10445;50.216;7.912;2022-10-22T01:46:09;14.00;99.90
20574;DHT22;10445;50.216;7.912;2022-10-22T01:49:16;14.00;99.90
20574;DHT22;10445;50.216;7.912;2022-10-22T01:52:14;14.00;99.90
20574;DHT22;10445;50.216;7.912;2022-10-22T01:55:14;14.00;99.90
20574;DHT22;10445;50.216;7.912;2022-10-22T01:58:16;14.00;99.90
20574;DHT22;10445;50.216;7.912;2022-10-22T02:01:14;14.00;99.90
20574;DHT22;10445;50.216;7.912;2022-10-22T02:04:10;13.90;99.90
20574;DHT22;10445;50.216;7.912;2022-10-22T02:07:02;13.90;99.90
20574;DHT22;10445;50.216;7.912;2022-10-22T02:09:52;13.90;99.90
20574;DHT22;10445;50.216;7.912;2022-10-22T02:12:43;13.90;99.90
20574;DHT22;10445;50.216;7.912;2022-10-22T02:15:35;13.90;99.90
20574;DHT22;10445;50.216;7.912;2022-10-22T02:18:28;13.90;99.90
20574;DHT22;10445;50.216;7.912;2022-10-22T02:21:23;13.90;99.90
20574;DHT22;10445;50.216;7.912;2022-10-22T02:24:12;13.80;99.90
20574;DHT22;10445;50.216;7.912;2022-10-22T02:27:05;13.80;99.90
20574;DHT22;10445;50.216;7.912;2022-10-22T02:29:58;13.70;99.90
20574;DHT22;10445;50.216;7.912;2022-10-22T02:32:53;13.70;99.90
20574;DHT22;10445;50.216;7.912;2022-10-22T02:35:44;13.80;99.90
20574;DHT22;10445;50.216;7.912;2022-10-22T02:38:34;13.80;99.90
20574;DHT22;10445;50.216;7.912;2022-10-22T02:41:23;13.70;99.90
20574;DHT22;10445;50.216;7.912;2022-10-22T02:44:12;13.70;99.90
20574;DHT22;10445;50.216;7.912;2022-10-22T02:47:00;13.70;99.90
20574;DHT22;10445;50.216;7.912;2022-10-22T02:49:49;13.70;99.90
20574;DHT22;10445;50.216;7.912;2022-10-22T02:52:39;13.70;99.90
20574;DHT22;10445;50.216;7.912;2022-10-22T02:55:28;13.60;99.90
20574;DHT22;10445;50.216;7.912;2022-10-22T02:58:17;13.50;99.90
20574;DHT22;10445;50.216;7.912;2022-10-22T03:01:05;13.50;99.90
20574;DHT22;10445;50.216;7.912;2022-10-22T03:03:57;13.60;99.90
20574;DHT22;10445;50.216;7.912;2022-10-22T03:06:45;13.70;99.90
20574;DHT22;10445;50.216;7.912;2022-10-22T03:09:36;13.60;99.90
20574;DHT22;10445;50.216;7.912;2022-10-22T03:12:25;13.60;99.90
20574;DHT22;10445;50.216;7.912;2022-10-22T03:15:13;13.60;99.90
20574;DHT22;10445;50.216;7.912;2022-10-22T03:18:02;13.60;99.90
20574;DHT22;10445;50.216;7.912;2022-10-22T03:21:00;13.60;99.90
20574;DHT22;10445;50.216;7.912;2022-10-22T03:23:49;13.60;99.90
20574;DHT22;10445;50.216;7.912;2022-10-22T03:26:40;13.60;99.90
20574;DHT22;10445;50.216;7.912;2022-10-22T03:29:32;13.50;99.90
20574;DHT22;10445;50.216;7.912;2022-10-22T03:32:21;13.50;99.90
20574;DHT22;10445;50.216;7.912;2022-10-22T03:35:09;13.60;99.90
20574;DHT22;10445;50.216;7.912;2022-10-22T03:37:59;13.50;99.90
20574;DHT22;10445;50.216;7.912;2022-10-22T03:40:48;13.50;99.90
20574;DHT22;10445;50.216;7.912;2022-10-22T03:43:38;13.50;99.90
20574;DHT22;10445;50.216;7.912;2022-10-22T03:46:27;13.50;99.90
20574;DHT22;10445;50.216;7.912;2022-10-22T03:49:16;13.50;99.90
20574;DHT22;10445;50.216;7.912;2022-10-22T03:52:05;13.40;99.90
20574;DHT22;10445;50.216;7.912;2022-10-22T03:54:54;13.50;99.90
20574;DHT22;10445;50.216;7.912;2022-10-22T03:57:43;13.50;99.90
20574;DHT22;10445;50.216;7.912;2022-10-22T04:00:34;13.50;99.90
20574;DHT22;10445;50.216;7.912;2022-10-22T04:03:22;13.40;99.90
20574;DHT22;10445;50.216;7.912;2022-10-22T04:06:12;13.40;99.90
20574;DHT22;10445;50.216;7.912;2022-10-22T04:09:00;13.40;99.90
20574;DHT22;10445;50.216;7.912;2022-10-22T04:11:49;13.40;99.90
20574;DHT22;10445;50.216;7.912;2022-10-22T04:14:38;13.40;99.90
20574;DHT22;10445;50.216;7.912;2022-10-22T04:17:32;13.40;99.90
20574;DHT22;10445;50.216;7.912;2022-10-22T04:20:21;13.40;99.90
20574;DHT22;10445;50.216;7.912;2022-10-22T04:23:09;13.40;99.90
20574;DHT22;10445;50.216;7.912;2022-10-22T04:25:58;13.40;99.90
20574;DHT22;10445;50.216;7.912;2022-10-22T04:28:48;13.40;99.90
20574;DHT22;10445;50.216;7.912;2022-10-22T04:31:37;13.40;99.90
20574;DHT22;10445;50.216;7.912;2022-10-22T04:34:27;13.40;99.90
20574;DHT22;10445;50.216;7.912;2022-10-22T04:37:16;13.40;99.90
20574;DHT22;10445;50.216;7.912;2022-10-22T04:40:06;13.40;99.90
20574;DHT22;10445;50.216;7.912;2022-10-22T04:42:55;13.50;99.90
20574;DHT22;10445;50.216;7.912;2022-10-22T04:45:44;13.50;99.90
20574;DHT22;10445;50.216;7.912;2022-10-22T04:48:33;13.40;99.90
20574;DHT22;10445;50.216;7.912;2022-10-22T04:51:24;13.50;99.90
20574;DHT22;10445;50.216;7.912;2022-10-22T04:54:14;13.50;99.90
20574;DHT22;10445;50.216;7.912;2022-10-22T04:57:03;13.50;99.90
20574;DHT22;10445;50.216;7.912;2022-10-22T04:59:51;13.50;99.90
20574;DHT22;10445;50.216;7.912;2022-10-22T05:02:40;13.60;99.90
20574;DHT22;10445;50.216;7.912;2022-10-22T05:05:31;13.50;99.90
20574;DHT22;10445;50.216;7.912;2022-10-22T05:08:21;13.50;99.90
20574;DHT22;10445;50.216;7.912;2022-10-22T05:11:11;13.50;99.90
20574;DHT22;10445;50.216;7.912;2022-10-22T05:14:02;13.50;99.90
20574;DHT22;10445;50.216;7.912;2022-10-22T05:16:51;13.40;99.90
20574;DHT22;10445;50.216;7.912;2022-10-22T05:19:40;13.30;99.90
20574;DHT22;10445;50.216;7.912;2022-10-22T05:22:28;13.20;99.90
20574;DHT22;10445;50.216;7.912;2022-10-22T05:25:18;13.20;99.90
20574;DHT22;10445;50.216;7.912;2022-10-22T05:28:07;13.20;99.90
20574;DHT22;10445;50.216;7.912;2022-10-22T05:30:57;13.20;99.90
20574;DHT22;10445;50.216;7.912;2022-10-22T05:33:46;13.20;99.90
20574;DHT22;10445;50.216;7.912;2022-10-22T05:36:35;13.30;99.90
20574;DHT22;10445;50.216;7.912;2022-10-22T05:39:24;13.30;99.90
20574;DHT22;10445;50.216;7.912;2022-10-22T05:42:14;13.20;99.90
20574;DHT22;10445;50.216;7.912;2022-10-22T05:45:03;13.20;99.90
20574;DHT22;10445;50.216;7.912;2022-10-22T05:47:52;13.20;99.90
20574;DHT22;10445;50.216;7.912;2022-10-22T05:50:40;13.20;99.90
20574;DHT22;10445;50.216;7.912;2022-10-22T05:53:29;13.20;99.90
20574;DHT22;10445;50.216;7.912;2022-10-22T05:56:18;13.20;99.90
20574;DHT22;10445;50.216;7.912;2022-10-22T05:59:09;13.20;99.90
20574;DHT22;10445;50.216;7.912;2022-10-22T06:01:58;13.10;99.90
20574;DHT22;10445;50.216;7.912;2022-10-22T06:04:46;13.10;99.90
20574;DHT22;10445;50.216;7.912;2022-10-22T06:07:35;13.10;99.90
20574;DHT22;10445;50.216;7.912;2022-10-22T06:10:24;13.10;99.90
20574;DHT22;10445;50.216;7.912;2022-10-22T06:13:12;13.10;99.90
20574;DHT22;10445;50.216;7.912;2022-10-22T06:16:02;13.00;99.90
20574;DHT22;10445;50.216;7.912;2022-10-22T06:18:51;13.00;99.90
20574;DHT22;10445;50.216;7.912;2022-10-22T06:21:40;12.90;99.90
20574;DHT22;10445;50.216;7.912;2022-10-22T06:24:29;12.90;99.90
20574;DHT22;10445;50.216;7.912;2022-10-22T06:27:17;13.00;99.90
20574;DHT22;10445;50.216;7.912;2022-10-22T06:30:07;13.00;99.90
20574;DHT22;10445;50.216;7.912;2022-10-22T06:32:57;13.00;99.90
20574;DHT22;10445;50.216;7.912;2022-10-22T06:35:46;13.00;99.90
20574;DHT22;10445;50.216;7.912;2022-10-22T06:38:35;13.00;99.90
20574;DHT22;10445;50.216;7.912;2022-10-22T06:41:24;13.00;99.90
20574;DHT22;10445;50.216;7.912;2022-10-22T06:44:16;13.00;99.90
20574;DHT22;10445;50.216;7.912;2022-10-22T06:47:05;13.00;99.90
20574;DHT22;10445;50.216;7.912;2022-10-22T06:49:55;13.20;99.90
20574;DHT22;10445;50.216;7.912;2022-10-22T06:52:44;13.10;99.90
20574;DHT22;10445;50.216;7.912;2022-10-22T06:55:34;13.00;99.90
20574;DHT22;10445;50.216;7.912;2022-10-22T06:58:23;13.00;99.90
20574;DHT22;10445;50.216;7.912;2022-10-22T07:01:13;13.00;99.90
20574;DHT22;10445;50.216;7.912;2022-10-22T07:04:03;13.10;99.90
20574;DHT22;10445;50.216;7.912;2022-10-22T07:06:55;13.10;99.90
20574;DHT22;10445;50.216;7.912;2022-10-22T07:09:43;13.30;99.90
20574;DHT22;10445;50.216;7.912;2022-10-22T07:12:34;13.50;99.90
20574;DHT22;10445;50.216;7.912;2022-10-22T07:15:22;13.80;99.90
20574;DHT22;10445;50.216;7.912;2022-10-22T07:18:11;13.90;99.90
20574;DHT22;10445;50.216;7.912;2022-10-22T07:21:00;14.00;99.90
20574;DHT22;10445;50.216;7.912;2022-10-22T07:23:50;14.00;99.90
20574;DHT22;10445;50.216;7.912;2022-10-22T07:26:38;14.10;99.90
20574;DHT22;10445;50.216;7.912;2022-10-22T07:29:27;14.10;99.90
20574;DHT22;10445;50.216;7.912;2022-10-22T07:32:15;14.10;99.90
20574;DHT22;10445;50.216;7.912;2022-10-22T07:35:09;14.20;99.90
20574;DHT22;10445;50.216;7.912;2022-10-22T07:37:58;14.30;99.90
20574;DHT22;10445;50.216;7.912;2022-10-22T07:40:48;14.30;99.90
20574;DHT22;10445;50.216;7.912;2022-10-22T07:43:37;14.30;99.50
20574;DHT22;10445;50.216;7.912;2022-10-22T07:46:26;14.30;99.90
20574;DHT22;10445;50.216;7.912;2022-10-22T07:49:14;14.40;99.20
20574;DHT22;10445;50.216;7.912;2022-10-22T07:52:03;14.50;99.60
20574;DHT22;10445;50.216;7.912;2022-10-22T07:54:52;14.70;99.60
20574;DHT22;10445;50.216;7.912;2022-10-22T07:57:42;14.60;95.30
20574;DHT22;10445;50.216;7.912;2022-10-22T08:00:30;14.40;96.80
20574;DHT22;10445;50.216;7.912;2022-10-22T08:03:19;14.40;98.40
20574;DHT22;10445;50.216;7.912;2022-10-22T08:06:08;14.60;96.40
20574;DHT22;10445;50.216;7.912;2022-10-22T08:08:57;14.80;97.70
20574;DHT22;10445;50.216;7.912;2022-10-22T08:11:45;14.90;97.90
20574;DHT22;10445;50.216;7.912;2022-10-22T08:14:35;14.90;93.30
20574;DHT22;10445;50.216;7.912;2022-10-22T08:17:24;14.90;91.60
20574;DHT22;10445;50.216;7.912;2022-10-22T08:20:13;15.00;93.20
20574;DHT22;10445;50.216;7.912;2022-10-22T08:23:01;15.10;92.40
20574;DHT22;10445;50.216;7.912;2022-10-22T08:25:50;15.10;87.90
20574;DHT22;10445;50.216;7.912;2022-10-22T08:28:38;15.00;88.30
20574;DHT22;10445;50.216;7.912;2022-10-22T08:31:28;15.00;88.00
20574;DHT22;10445;50.216;7.912;2022-10-22T08:34:17;15.10;89.10
20574;DHT22;10445;50.216;7.912;2022-10-22T08:37:06;15.10;91.10
20574;DHT22;10445;50.216;7.912;2022-10-22T08:39:56;15.20;90.30
20574;DHT22;10445;50.216;7.912;2022-10-22T08:46:16;15.10;90.80
20574;DHT22;10445;50.216;7.912;2022-10-22T08:49:13;15.00;86.10
20574;DHT22;10445;50.216;7.912;2022-10-22T08:52:04;14.90;91.00
20574;DHT22;10445;50.216;7.912;2022-10-22T08:54:54;14.80;92.10
20574;DHT22;10445;50.216;7.912;2022-10-22T08:57:48;14.80;95.20
20574;DHT22;10445;50.216;7.912;2022-10-22T09:00:43;15.00;95.90
20574;DHT22;10445;50.216;7.912;2022-10-22T09:03:40;15.40;91.80
20574;DHT22;10445;50.216;7.912;2022-10-22T09:06:34;15.50;89.50
20574;DHT22;10445;50.216;7.912;2022-10-22T09:09:30;15.70;86.10
20574;DHT22;10445;50.216;7.912;2022-10-22T09:12:21;15.80;80.00
20574;DHT22;10445;50.216;7.912;2022-10-22T09:15:13;15.90;78.10
20574;DHT22;10445;50.216;7.912;2022-10-22T09:18:09;15.90;74.50
20574;DHT22;10445;50.216;7.912;2022-10-22T09:21:05;16.10;79.70
20574;DHT22;10445;50.216;7.912;2022-10-22T09:24:04;16.20;77.00
20574;DHT22;10445;50.216;7.912;2022-10-22T09:26:55;16.50;72.20
20574;DHT22;10445;50.216;7.912;2022-10-22T09:29:45;16.50;67.40
20574;DHT22;10445;50.216;7.912;2022-10-22T09:32:34;16.50;59.60
20574;DHT22;10445;50.216;7.912;2022-10-22T09:35:22;16.40;67.70
20574;DHT22;10445;50.216;7.912;2022-10-22T09:38:14;16.40;66.70
20574;DHT22;10445;50.216;7.912;2022-10-22T09:41:05;16.20;63.90
20574;DHT22;10445;50.216;7.912;2022-10-22T09:43:53;16.20;68.10
20574;DHT22;10445;50.216;7.912;2022-10-22T09:46:42;16.20;59.30
20574;DHT22;10445;50.216;7.912;2022-10-22T09:49:34;16.00;59.90
20574;DHT22;10445;50.216;7.912;2022-10-22T09:52:26;15.80;64.30
20574;DHT22;10445;50.216;7.912;2022-10-22T09:55:17;15.70;70.30
20574;DHT22;10445;50.216;7.912;2022-10-22T09:58:11;15.70;71.40
20574;DHT22;10445;50.216;7.912;2022-10-22T10:01:00;15.70;75.80
20574;DHT22;10445;50.216;7.912;2022-10-22T10:03:49;15.90;73.90
20574;DHT22;10445;50.216;7.912;2022-10-22T10:06:40;16.20;70.50
20574;DHT22;10445;50.216;7.912;2022-10-22T10:09:30;16.40;59.80
20574;DHT22;10445;50.216;7.912;2022-10-22T10:12:28;16.60;60.70
20574;DHT22;10445;50.216;7.912;2022-10-22T10:15:26;16.60;57.00
20574;DHT22;10445;50.216;7.912;2022-10-22T10:18:24;16.60;55.70
20574;DHT22;10445;50.216;7.912;2022-10-22T10:21:19;16.40;62.10
20574;DHT22;10445;50.216;7.912;2022-10-22T10:24:18;16.40;66.20
20574;DHT22;10445;50.216;7.912;2022-10-22T10:27:16;16.40;62.20
20574;DHT22;10445;50.216;7.912;2022-10-22T10:30:12;16.20;62.40
20574;DHT22;10445;50.216;7.912;2022-10-22T10:33:10;16.30;62.80
20574;DHT22;10445;50.216;7.912;2022-10-22T10:36:07;16.30;60.90
20574;DHT22;10445;50.216;7.912;2022-10-22T10:39:03;16.30;62.30
20574;DHT22;10445;50.216;7.912;2022-10-22T10:41:57;16.40;63.80
20574;DHT22;10445;50.216;7.912;2022-10-22T10:44:58;16.60;66.10
20574;DHT22;10445;50.216;7.912;2022-10-22T10:48:18;16.80;63.80
20574;DHT22;10445;50.216;7.912;2022-10-22T10:51:22;17.00;59.50
20574;DHT22;10445;50.216;7.912;2022-10-22T10:54:25;17.10;57.20
20574;DHT22;10445;50.216;7.912;2022-10-22T10:57:23;17.30;56.10
20574;DHT22;10445;50.216;7.912;2022-10-22T11:00:15;17.40;47.30
20574;DHT22;10445;50.216;7.912;2022-10-22T11:06:36;17.30;43.90
20574;DHT22;10445;50.216;7.912;2022-10-22T11:09:29;17.20;44.10
20574;DHT22;10445;50.216;7.912;2022-10-22T11:12:22;17.00;44.50
20574;DHT22;10445;50.216;7.912;2022-10-22T11:15:22;16.90;48.80
20574;DHT22;10445;50.216;7.912;2022-10-22T11:18:19;16.80;45.70
20574;DHT22;10445;50.216;7.912;2022-10-22T11:21:15;16.60;49.60
20574;DHT22;10445;50.216;7.912;2022-10-22T11:24:11;16.60;56.50
20574;DHT22;10445;50.216;7.912;2022-10-22T11:27:09;16.60;55.10
20574;DHT22;10445;50.216;7.912;2022-10-22T11:30:01;16.60;59.00
20574;DHT22;10445;50.216;7.912;2022-10-22T11:32:52;16.70;53.10
20574;DHT22;10445;50.216;7.912;2022-10-22T11:35:43;16.90;51.10
20574;DHT22;10445;50.216;7.912;2022-10-22T11:38:32;17.20;47.80
20574;DHT22;10445;50.216;7.912;2022-10-22T11:41:27;17.30;46.80
20574;DHT22;10445;50.216;7.912;2022-10-22T11:44:21;17.30;40.60
20574;DHT22;10445;50.216;7.912;2022-10-22T11:47:17;17.30;43.20
20574;DHT22;10445;50.216;7.912;2022-10-22T11:50:21;17.20;42.30
20574;DHT22;10445;50.216;7.912;2022-10-22T11:53:18;17.10;39.00
20574;DHT22;10445;50.216;7.912;2022-10-22T11:56:25;16.90;42.20
20574;DHT22;10445;50.216;7.912;2022-10-22T11:59:37;16.70;43.00
20574;DHT22;10445;50.216;7.912;2022-10-22T12:02:47;16.60;45.80
20574;DHT22;10445;50.216;7.912;2022-10-22T12:06:04;16.50;46.30
20574;DHT22;10445;50.216;7.912;2022-10-22T12:08:59;16.50;48.80
20574;DHT22;10445;50.216;7.912;2022-10-22T12:11:51;16.70;51.90
20574;DHT22;10445;50.216;7.912;2022-10-22T12:14:51;16.90;47.40
20574;DHT22;10445;50.216;7.912;2022-10-22T12:17:41;17.00;35.80
20574;DHT22;10445;50.216;7.912;2022-10-22T12:20:30;16.90;35.20
20574;DHT22;10445;50.216;7.912;2022-10-22T12:23:20;16.90;34.60
20574;DHT22;10445;50.216;7.912;2022-10-22T12:26:23;17.10;30.70
20574;DHT22;10445;50.216;7.912;2022-10-22T12:29:15;17.20;31.90
20574;DHT22;10445;50.216;7.912;2022-10-22T12:32:04;17.20;26.00
20574;DHT22;10445;50.216;7.912;2022-10-22T12:34:53;17.30;28.30
20574;DHT22;10445;50.216;7.912;2022-10-22T12:37:42;17.40;27.30
20574;DHT22;10445;50.216;7.912;2022-10-22T12:40:33;17.40;27.60
20574;DHT22;10445;50.216;7.912;2022-10-22T12:43:25;17.30;28.40
20574;DHT22;10445;50.216;7.912;2022-10-22T12:46:15;17.20;28.40
20574;DHT22;10445;50.216;7.912;2022-10-22T12:49:07;17.10;29.80
20574;DHT22;10445;50.216;7.912;2022-10-22T12:52:01;17.20;28.00
20574;DHT22;10445;50.216;7.912;2022-10-22T12:54:51;17.30;28.30
20574;DHT22;10445;50.216;7.912;2022-10-22T12:57:41;17.30;26.80
20574;DHT22;10445;50.216;7.912;2022-10-22T13:00:32;17.30;27.60
20574;DHT22;10445;50.216;7.912;2022-10-22T13:03:29;17.30;26.20
20574;DHT22;10445;50.216;7.912;2022-10-22T13:06:24;17.40;26.30
20574;DHT22;10445;50.216;7.912;2022-10-22T13:09:17;17.50;28.20
20574;DHT22;10445;50.216;7.912;2022-10-22T13:12:12;17.60;28.60
20574;DHT22;10445;50.216;7.912;2022-10-22T13:15:19;17.60;29.00
20574;DHT22;10445;50.216;7.912;2022-10-22T13:18:16;17.60;24.10
20574;DHT22;10445;50.216;7.912;2022-10-22T13:21:22;17.90;26.40
20574;DHT22;10445;50.216;7.912;2022-10-22T13:24:22;18.20;21.30
20574;DHT22;10445;50.216;7.912;2022-10-22T13:27:12;18.20;19.30
20574;DHT22;10445;50.216;7.912;2022-10-22T13:30:02;18.30;17.70
20574;DHT22;10445;50.216;7.912;2022-10-22T13:32:58;18.30;19.30
20574;DHT22;10445;50.216;7.912;2022-10-22T13:35:47;17.90;20.50
20574;DHT22;10445;50.216;7.912;2022-10-22T13:38:37;17.60;22.20
20574;DHT22;10445;50.216;7.912;2022-10-22T13:41:27;17.30;22.30
20574;DHT22;10445;50.216;7.912;2022-10-22T13:44:17;17.20;29.40
20574;DHT22;10445;50.216;7.912;2022-10-22T13:47:10;17.10;33.80
20574;DHT22;10445;50.216;7.912;2022-10-22T13:50:06;17.10;33.00
20574;DHT22;10445;50.216;7.912;2022-10-22T13:52:58;17.10;33.00
20574;DHT22;10445;50.216;7.912;2022-10-22T13:55:48;17.20;30.50
20574;DHT22;10445;50.216;7.912;2022-10-22T13:58:37;17.10;32.20
20574;DHT22;10445;50.216;7.912;2022-10-22T14:01:26;17.10;28.80
20574;DHT22;10445;50.216;7.912;2022-10-22T14:04:15;17.10;29.00
20574;DHT22;10445;50.216;7.912;2022-10-22T14:07:06;17.10;29.30
20574;DHT22;10445;50.216;7.912;2022-10-22T14:09:56;17.00;26.50
20574;DHT22;10445;50.216;7.912;2022-10-22T14:12:46;16.90;28.10
20574;DHT22;10445;50.216;7.912;2022-10-22T14:15:40;16.70;29.30
20574;DHT22;10445;50.216;7.912;2022-10-22T14:18:29;16.60;31.80
20574;DHT22;10445;50.216;7.912;2022-10-22T14:21:19;16.60;33.70
20574;DHT22;10445;50.216;7.912;2022-10-22T14:24:09;16.70;31.90
20574;DHT22;10445;50.216;7.912;2022-10-22T14:26:59;16.80;33.90
20574;DHT22;10445;50.216;7.912;2022-10-22T14:29:49;17.00;33.10
20574;DHT22;10445;50.216;7.912;2022-10-22T14:32:43;17.10;30.10
20574;DHT22;10445;50.216;7.912;2022-10-22T14:35:32;17.10;26.60
20574;DHT22;10445;50.216;7.912;2022-10-22T14:38:21;17.10;24.00
20574;DHT22;10445;50.216;7.912;2022-10-22T14:41:16;17.10;24.00
20574;DHT22;10445;50.216;7.912;2022-10-22T14:44:05;16.90;28.10
20574;DHT22;10445;50.216;7.912;2022-10-22T14:47:00;16.70;29.20
20574;DHT22;10445;50.216;7.912;2022-10-22T14:49:48;16.60;32.80
20574;DHT22;10445;50.216;7.912;2022-10-22T14:52:37;16.50;36.20
20574;DHT22;10445;50.216;7.912;2022-10-22T14:55:26;16.30;35.70
20574;DHT22;10445;50.216;7.912;2022-10-22T14:58:15;16.20;37.20
20574;DHT22;10445;50.216;7.912;2022-10-22T15:01:04;16.20;38.30
20574;DHT22;10445;50.216;7.912;2022-10-22T15:03:54;16.20;39.60
20574;DHT22;10445;50.216;7.912;2022-10-22T15:06:42;16.20;40.00
20574;DHT22;10445;50.216;7.912;2022-10-22T15:09:31;16.20;43.20
20574;DHT22;10445;50.216;7.912;2022-10-22T15:12:19;16.20;39.30
20574;DHT22;10445;50.216;7.912;2022-10-22T15:15:09;16.20;40.10
20574;DHT22;10445;50.216;7.912;2022-10-22T15:17:57;16.20;36.90
20574;DHT22;10445;50.216;7.912;2022-10-22T15:20:55;16.00;38.70
20574;DHT22;10445;50.216;7.912;2022-10-22T15:23:44;15.90;38.50
20574;DHT22;10445;50.216;7.912;2022-10-22T15:26:32;15.80;41.20
20574;DHT22;10445;50.216;7.912;2022-10-22T15:29:21;15.80;38.30
20574;DHT22;10445;50.216;7.912;2022-10-22T15:32:10;15.70;41.40
20574;DHT22;10445;50.216;7.912;2022-10-22T15:34:58;15.60;43.00
20574;DHT22;10445;50.216;7.912;2022-10-22T15:37:51;15.60;44.20
20574;DHT22;10445;50.216;7.912;2022-10-22T15:40:39;15.50;43.40
20574;DHT22;10445;50.216;7.912;2022-10-22T15:43:28;15.50;43.60
20574;DHT22;10445;50.216;7.912;2022-10-22T15:46:18;15.40;45.50
20574;DHT22;10445;50.216;7.912;2022-10-22T15:49:08;15.20;49.80
20574;DHT22;10445;50.216;7.912;2022-10-22T15:51:56;15.10;53.10
20574;DHT22;10445;50.216;7.912;2022-10-22T15:54:46;15.00;55.00
20574;DHT22;10445;50.216;7.912;2022-10-22T15:57:35;14.90;53.70
20574;DHT22;10445;50.216;7.912;2022-10-22T16:00:23;14.80;54.30
20574;DHT22;10445;50.216;7.912;2022-10-22T16:03:12;14.70;56.90
20574;DHT22;10445;50.216;7.912;2022-10-22T16:06:01;14.70;59.80
20574;DHT22;10445;50.216;7.912;2022-10-22T16:08:50;14.60;59.00
20574;DHT22;10445;50.216;7.912;2022-10-22T16:11:40;14.70;57.90
20574;DHT22;10445;50.216;7.912;2022-10-22T16:14:29;14.70;59.10
20574;DHT22;10445;50.216;7.912;2022-10-22T16:17:17;14.50;61.50
20574;DHT22;10445;50.216;7.912;2022-10-22T16:20:07;14.40;61.80
20574;DHT22;10445;50.216;7.912;2022-10-22T16:22:56;14.50;60.60
20574;DHT22;10445;50.216;7.912;2022-10-22T16:25:44;14.50;61.10
20574;DHT22;10445;50.216;7.912;2022-10-22T16:28:34;14.40;63.30
20574;DHT22;10445;50.216;7.912;2022-10-22T16:31:23;14.40;60.70
20574;DHT22;10445;50.216;7.912;2022-10-22T16:34:12;14.40;60.70
20574;DHT22;10445;50.216;7.912;2022-10-22T16:37:01;14.40;61.20
20574;DHT22;10445;50.216;7.912;2022-10-22T16:39:56;14.30;62.50
20574;DHT22;10445;50.216;7.912;2022-10-22T16:42:47;14.20;66.10
20574;DHT22;10445;50.216;7.912;2022-10-22T16:45:37;14.10;67.30
20574;DHT22;10445;50.216;7.912;2022-10-22T16:48:25;14.10;69.90
20574;DHT22;10445;50.216;7.912;2022-10-22T16:51:16;14.00;70.50
20574;DHT22;10445;50.216;7.912;2022-10-22T16:54:05;14.00;70.40
20574;DHT22;10445;50.216;7.912;2022-10-22T16:56:58;14.00;71.10
20574;DHT22;10445;50.216;7.912;2022-10-22T16:59:47;13.90;73.40
20574;DHT22;10445;50.216;7.912;2022-10-22T17:02:37;13.80;73.70
20574;DHT22;10445;50.216;7.912;2022-10-22T17:05:26;13.80;74.40
20574;DHT22;10445;50.216;7.912;2022-10-22T17:08:15;13.80;74.50
20574;DHT22;10445;50.216;7.912;2022-10-22T17:11:06;13.80;74.80
20574;DHT22;10445;50.216;7.912;2022-10-22T17:13:55;13.80;76.20
20574;DHT22;10445;50.216;7.912;2022-10-22T17:16:44;13.70;77.60
20574;DHT22;10445;50.216;7.912;2022-10-22T17:19:36;13.70;78.10
20574;DHT22;10445;50.216;7.912;2022-10-22T17:22:25;13.70;77.50
20574;DHT22;10445;50.216;7.912;2022-10-22T17:25:15;13.60;78.60
20574;DHT22;10445;50.216;7.912;2022-10-22T17:28:04;13.60;78.00
20574;DHT22;10445;50.216;7.912;2022-10-22T17:31:01;13.60;76.90
20574;DHT22;10445;50.216;7.912;2022-10-22T17:33:51;13.70;75.00
20574;DHT22;10445;50.216;7.912;2022-10-22T17:36:41;13.80;73.30
20574;DHT22;10445;50.216;7.912;2022-10-22T17:39:30;13.80;71.90
20574;DHT22;10445;50.216;7.912;2022-10-22T17:42:18;13.90;71.70
20574;DHT22;10445;50.216;7.912;2022-10-22T17:45:07;13.90;71.30
20574;DHT22;10445;50.216;7.912;2022-10-22T17:47:56;13.90;72.10
20574;DHT22;10445;50.216;7.912;2022-10-22T17:50:44;13.80;71.60
20574;DHT22;10445;50.216;7.912;2022-10-22T17:53:40;13.80;72.70
20574;DHT22;10445;50.216;7.912;2022-10-22T17:56:31;13.70;73.40
20574;DHT22;10445;50.216;7.912;2022-10-22T17:59:20;13.70;74.90
20574;DHT22;10445;50.216;7.912;2022-10-22T18:02:09;13.60;76.20
20574;DHT22;10445;50.216;7.912;2022-10-22T18:05:01;13.50;78.50
20574;DHT22;10445;50.216;7.912;2022-10-22T18:07:53;13.50;79.80
20574;DHT22;10445;50.216;7.912;2022-10-22T18:10:43;13.50;79.00